Aviation Digital Data Service (ADDS)

Output produced by METARs form (1821 UTC 26 September 2017)
found at http://aviationweather.gov/adds/metars/
 
KBPT 261753Z VRB04KT 10SM BKN033 BKN060 31/21 A2990 RMK AO2 SLP124 T03110211 10317 20233 58004